sensor_id;sensor_type;location;lat;lon;timestamp;temperature;humidity
56046;DHT22;41913;51.030;3.706;2023-11-22T00:01:38;19.00;89.40
56046;DHT22;41913;51.030;3.706;2023-11-22T00:04:04;19.00;90.00
56046;DHT22;41913;51.030;3.706;2023-11-22T00:06:30;19.00;89.40
56046;DHT22;41913;51.030;3.706;2023-11-22T00:08:57;19.00;89.40
56046;DHT22;41913;51.030;3.706;2023-11-22T00:11:22;19.00;89.50
56046;DHT22;41913;51.030;3.706;2023-11-22T00:13:49;19.00;89.50
56046;DHT22;41913;51.030;3.706;2023-11-22T00:16:21;19.00;89.60
56046;DHT22;41913;51.030;3.706;2023-11-22T00:18:46;19.00;89.60
56046;DHT22;41913;51.030;3.706;2023-11-22T00:21:13;19.00;89.60
56046;DHT22;41913;51.030;3.706;2023-11-22T00:23:39;19.00;89.60
56046;DHT22;41913;51.030;3.706;2023-11-22T00:26:04;19.00;89.60
56046;DHT22;41913;51.030;3.706;2023-11-22T00:28:32;18.90;89.60
56046;DHT22;41913;51.030;3.706;2023-11-22T00:30:58;18.90;89.60
56046;DHT22;41913;51.030;3.706;2023-11-22T00:33:24;18.90;89.60
56046;DHT22;41913;51.030;3.706;2023-11-22T00:35:49;18.90;89.60
56046;DHT22;41913;51.030;3.706;2023-11-22T00:38:15;18.90;89.60
56046;DHT22;41913;51.030;3.706;2023-11-22T00:40:42;18.90;89.50
56046;DHT22;41913;51.030;3.706;2023-11-22T00:43:07;18.90;89.60
56046;DHT22;41913;51.030;3.706;2023-11-22T00:45:34;18.90;89.60
56046;DHT22;41913;51.030;3.706;2023-11-22T00:48:00;18.90;89.60
56046;DHT22;41913;51.030;3.706;2023-11-22T00:50:26;19.00;89.60
56046;DHT22;41913;51.030;3.706;2023-11-22T00:52:52;18.90;89.60
56046;DHT22;41913;51.030;3.706;2023-11-22T00:55:19;18.90;89.60
56046;DHT22;41913;51.030;3.706;2023-11-22T00:57:44;18.90;89.60
56046;DHT22;41913;51.030;3.706;2023-11-22T01:00:11;18.90;89.50
56046;DHT22;41913;51.030;3.706;2023-11-22T01:02:37;18.90;89.50
56046;DHT22;41913;51.030;3.706;2023-11-22T01:05:09;18.90;89.60
56046;DHT22;41913;51.030;3.706;2023-11-22T01:07:36;18.90;89.50
56046;DHT22;41913;51.030;3.706;2023-11-22T01:10:03;18.90;89.50
56046;DHT22;41913;51.030;3.706;2023-11-22T01:12:28;18.90;89.50
56046;DHT22;41913;51.030;3.706;2023-11-22T01:14:54;18.90;89.50
56046;DHT22;41913;51.030;3.706;2023-11-22T01:17:20;18.90;89.50
56046;DHT22;41913;51.030;3.706;2023-11-22T01:19:46;18.90;89.50
56046;DHT22;41913;51.030;3.706;2023-11-22T01:22:11;18.90;89.60
56046;DHT22;41913;51.030;3.706;2023-11-22T01:24:37;18.90;89.60
56046;DHT22;41913;51.030;3.706;2023-11-22T01:27:03;18.80;89.50
56046;DHT22;41913;51.030;3.706;2023-11-22T01:29:30;18.90;89.50
56046;DHT22;41913;51.030;3.706;2023-11-22T01:31:56;18.90;89.50
56046;DHT22;41913;51.030;3.706;2023-11-22T01:34:22;18.80;89.50
56046;DHT22;41913;51.030;3.706;2023-11-22T01:36:49;18.80;89.50
56046;DHT22;41913;51.030;3.706;2023-11-22T01:39:15;18.80;89.50
56046;DHT22;41913;51.030;3.706;2023-11-22T01:41:44;18.90;89.50
56046;DHT22;41913;51.030;3.706;2023-11-22T01:44:10;18.90;89.50
56046;DHT22;41913;51.030;3.706;2023-11-22T01:46:38;18.80;89.50
56046;DHT22;41913;51.030;3.706;2023-11-22T01:49:04;18.80;89.40
56046;DHT22;41913;51.030;3.706;2023-11-22T01:51:30;18.80;89.40
56046;DHT22;41913;51.030;3.706;2023-11-22T01:53:56;18.80;89.40
56046;DHT22;41913;51.030;3.706;2023-11-22T01:56:24;18.80;89.40
56046;DHT22;41913;51.030;3.706;2023-11-22T01:58:52;18.80;89.40
56046;DHT22;41913;51.030;3.706;2023-11-22T02:01:20;18.80;89.40
56046;DHT22;41913;51.030;3.706;2023-11-22T02:03:46;18.80;89.40
56046;DHT22;41913;51.030;3.706;2023-11-22T02:06:17;18.80;89.40
56046;DHT22;41913;51.030;3.706;2023-11-22T02:08:43;18.80;89.50
56046;DHT22;41913;51.030;3.706;2023-11-22T02:11:09;18.80;89.40
56046;DHT22;41913;51.030;3.706;2023-11-22T02:13:35;18.80;89.50
56046;DHT22;41913;51.030;3.706;2023-11-22T02:16:03;18.80;89.40
56046;DHT22;41913;51.030;3.706;2023-11-22T02:18:29;18.80;89.40
56046;DHT22;41913;51.030;3.706;2023-11-22T02:20:55;18.80;89.40
56046;DHT22;41913;51.030;3.706;2023-11-22T02:23:21;18.80;89.40
56046;DHT22;41913;51.030;3.706;2023-11-22T02:25:47;18.80;89.40
56046;DHT22;41913;51.030;3.706;2023-11-22T02:28:14;18.80;89.40
56046;DHT22;41913;51.030;3.706;2023-11-22T02:30:41;18.70;89.30
56046;DHT22;41913;51.030;3.706;2023-11-22T02:33:07;18.70;89.30
56046;DHT22;41913;51.030;3.706;2023-11-22T02:35:33;18.80;89.40
56046;DHT22;41913;51.030;3.706;2023-11-22T02:38:00;18.70;89.30
56046;DHT22;41913;51.030;3.706;2023-11-22T02:40:26;18.80;89.40
56046;DHT22;41913;51.030;3.706;2023-11-22T02:42:53;18.80;89.40
56046;DHT22;41913;51.030;3.706;2023-11-22T02:45:28;18.70;89.30
56046;DHT22;41913;51.030;3.706;2023-11-22T02:47:54;18.70;89.30
56046;DHT22;41913;51.030;3.706;2023-11-22T02:50:20;18.70;89.30
56046;DHT22;41913;51.030;3.706;2023-11-22T02:52:46;18.70;89.30
56046;DHT22;41913;51.030;3.706;2023-11-22T02:55:11;18.70;89.30
56046;DHT22;41913;51.030;3.706;2023-11-22T02:57:38;18.70;89.30
56046;DHT22;41913;51.030;3.706;2023-11-22T03:00:12;18.70;89.30
56046;DHT22;41913;51.030;3.706;2023-11-22T03:02:41;18.70;89.30
56046;DHT22;41913;51.030;3.706;2023-11-22T03:05:09;18.70;89.30
56046;DHT22;41913;51.030;3.706;2023-11-22T03:07:35;18.70;89.20
56046;DHT22;41913;51.030;3.706;2023-11-22T03:10:03;18.70;89.20
56046;DHT22;41913;51.030;3.706;2023-11-22T03:12:28;18.70;89.30
56046;DHT22;41913;51.030;3.706;2023-11-22T03:14:54;18.70;89.30
56046;DHT22;41913;51.030;3.706;2023-11-22T03:17:29;18.70;89.20
56046;DHT22;41913;51.030;3.706;2023-11-22T03:19:58;18.70;89.30
56046;DHT22;41913;51.030;3.706;2023-11-22T03:22:26;18.70;89.30
56046;DHT22;41913;51.030;3.706;2023-11-22T03:24:52;18.70;89.30
56046;DHT22;41913;51.030;3.706;2023-11-22T03:27:18;18.70;89.30
56046;DHT22;41913;51.030;3.706;2023-11-22T03:29:44;18.70;89.30
56046;DHT22;41913;51.030;3.706;2023-11-22T03:32:10;18.70;89.30
56046;DHT22;41913;51.030;3.706;2023-11-22T03:34:37;18.60;89.20
56046;DHT22;41913;51.030;3.706;2023-11-22T03:37:02;18.60;89.20
56046;DHT22;41913;51.030;3.706;2023-11-22T03:39:28;18.60;89.20
56046;DHT22;41913;51.030;3.706;2023-11-22T03:41:54;18.60;89.20
56046;DHT22;41913;51.030;3.706;2023-11-22T03:44:19;18.60;89.10
56046;DHT22;41913;51.030;3.706;2023-11-22T03:46:45;18.60;89.10
56046;DHT22;41913;51.030;3.706;2023-11-22T03:49:11;18.60;89.10
56046;DHT22;41913;51.030;3.706;2023-11-22T03:51:39;18.60;89.10
56046;DHT22;41913;51.030;3.706;2023-11-22T03:54:05;18.60;89.20
56046;DHT22;41913;51.030;3.706;2023-11-22T03:56:31;18.60;89.10
56046;DHT22;41913;51.030;3.706;2023-11-22T03:58:57;18.60;89.10
56046;DHT22;41913;51.030;3.706;2023-11-22T04:01:23;18.60;89.10
56046;DHT22;41913;51.030;3.706;2023-11-22T04:03:49;18.60;89.10
56046;DHT22;41913;51.030;3.706;2023-11-22T04:06:18;18.60;89.00
56046;DHT22;41913;51.030;3.706;2023-11-22T04:08:45;18.60;89.00
56046;DHT22;41913;51.030;3.706;2023-11-22T04:11:12;18.60;89.00
56046;DHT22;41913;51.030;3.706;2023-11-22T04:13:37;18.60;89.00
56046;DHT22;41913;51.030;3.706;2023-11-22T04:16:04;18.60;88.90
56046;DHT22;41913;51.030;3.706;2023-11-22T04:18:32;18.60;88.90
56046;DHT22;41913;51.030;3.706;2023-11-22T04:20:58;18.60;88.90
56046;DHT22;41913;51.030;3.706;2023-11-22T04:23:26;18.60;88.90
56046;DHT22;41913;51.030;3.706;2023-11-22T04:25:52;18.60;88.90
56046;DHT22;41913;51.030;3.706;2023-11-22T04:28:18;18.60;88.90
56046;DHT22;41913;51.030;3.706;2023-11-22T04:30:45;18.60;88.90
56046;DHT22;41913;51.030;3.706;2023-11-22T04:33:10;18.60;88.90
56046;DHT22;41913;51.030;3.706;2023-11-22T04:35:36;18.60;88.90
56046;DHT22;41913;51.030;3.706;2023-11-22T04:38:04;18.60;89.40
56046;DHT22;41913;51.030;3.706;2023-11-22T04:40:30;18.50;88.80
56046;DHT22;41913;51.030;3.706;2023-11-22T04:42:56;18.60;88.80
56046;DHT22;41913;51.030;3.706;2023-11-22T04:45:22;18.50;88.80
56046;DHT22;41913;51.030;3.706;2023-11-22T04:47:48;18.60;88.80
56046;DHT22;41913;51.030;3.706;2023-11-22T04:50:13;18.50;88.70
56046;DHT22;41913;51.030;3.706;2023-11-22T04:52:39;18.60;88.80
56046;DHT22;41913;51.030;3.706;2023-11-22T04:55:06;18.50;88.80
56046;DHT22;41913;51.030;3.706;2023-11-22T04:57:33;18.60;88.80
56046;DHT22;41913;51.030;3.706;2023-11-22T04:59:58;18.50;88.70
56046;DHT22;41913;51.030;3.706;2023-11-22T05:02:26;18.50;88.70
56046;DHT22;41913;51.030;3.706;2023-11-22T05:04:53;18.50;88.70
56046;DHT22;41913;51.030;3.706;2023-11-22T05:07:19;18.50;88.70
56046;DHT22;41913;51.030;3.706;2023-11-22T05:09:45;18.50;88.70
56046;DHT22;41913;51.030;3.706;2023-11-22T05:12:11;18.50;88.70
56046;DHT22;41913;51.030;3.706;2023-11-22T05:14:37;18.50;88.70
56046;DHT22;41913;51.030;3.706;2023-11-22T05:17:04;18.50;88.70
56046;DHT22;41913;51.030;3.706;2023-11-22T05:19:30;18.50;88.70
56046;DHT22;41913;51.030;3.706;2023-11-22T05:21:57;18.50;88.70
56046;DHT22;41913;51.030;3.706;2023-11-22T05:24:23;18.50;88.70
56046;DHT22;41913;51.030;3.706;2023-11-22T05:26:50;18.50;88.70
56046;DHT22;41913;51.030;3.706;2023-11-22T05:29:16;18.50;88.70
56046;DHT22;41913;51.030;3.706;2023-11-22T05:31:41;18.50;88.70
56046;DHT22;41913;51.030;3.706;2023-11-22T05:34:08;18.50;88.70
56046;DHT22;41913;51.030;3.706;2023-11-22T05:36:34;18.40;88.60
56046;DHT22;41913;51.030;3.706;2023-11-22T05:39:00;18.40;88.60
56046;DHT22;41913;51.030;3.706;2023-11-22T05:41:26;18.50;88.70
56046;DHT22;41913;51.030;3.706;2023-11-22T05:43:52;18.50;88.60
56046;DHT22;41913;51.030;3.706;2023-11-22T05:46:20;18.40;88.60
56046;DHT22;41913;51.030;3.706;2023-11-22T05:48:54;18.40;88.60
56046;DHT22;41913;51.030;3.706;2023-11-22T05:51:20;18.40;88.60
56046;DHT22;41913;51.030;3.706;2023-11-22T05:53:46;18.40;88.60
56046;DHT22;41913;51.030;3.706;2023-11-22T05:56:12;18.40;88.60
56046;DHT22;41913;51.030;3.706;2023-11-22T05:58:38;18.40;88.60
56046;DHT22;41913;51.030;3.706;2023-11-22T06:01:07;18.40;88.60
56046;DHT22;41913;51.030;3.706;2023-11-22T06:03:35;18.40;88.60
56046;DHT22;41913;51.030;3.706;2023-11-22T06:06:01;18.40;88.60
56046;DHT22;41913;51.030;3.706;2023-11-22T06:08:29;18.40;88.60
56046;DHT22;41913;51.030;3.706;2023-11-22T06:10:56;18.40;88.60
56046;DHT22;41913;51.030;3.706;2023-11-22T06:13:23;18.40;89.20
56046;DHT22;41913;51.030;3.706;2023-11-22T06:15:49;18.40;88.60
56046;DHT22;41913;51.030;3.706;2023-11-22T06:18:15;18.40;88.60
56046;DHT22;41913;51.030;3.706;2023-11-22T06:20:42;18.40;88.60
56046;DHT22;41913;51.030;3.706;2023-11-22T06:23:08;18.40;88.50
56046;DHT22;41913;51.030;3.706;2023-11-22T06:25:34;18.40;88.50
56046;DHT22;41913;51.030;3.706;2023-11-22T06:28:03;18.40;88.50
56046;DHT22;41913;51.030;3.706;2023-11-22T06:30:29;18.40;88.50
56046;DHT22;41913;51.030;3.706;2023-11-22T06:32:56;18.40;88.50
56046;DHT22;41913;51.030;3.706;2023-11-22T06:35:23;18.40;88.40
56046;DHT22;41913;51.030;3.706;2023-11-22T06:37:51;18.40;88.50
56046;DHT22;41913;51.030;3.706;2023-11-22T06:40:17;18.40;88.50
56046;DHT22;41913;51.030;3.706;2023-11-22T06:42:45;18.40;88.70
56046;DHT22;41913;51.030;3.706;2023-11-22T06:45:11;18.50;89.00
56046;DHT22;41913;51.030;3.706;2023-11-22T06:47:42;18.60;89.50
56046;DHT22;41913;51.030;3.706;2023-11-22T06:50:09;18.70;90.20
56046;DHT22;41913;51.030;3.706;2023-11-22T06:52:39;18.90;90.80
56046;DHT22;41913;51.030;3.706;2023-11-22T06:55:06;19.00;91.10
56046;DHT22;41913;51.030;3.706;2023-11-22T06:57:39;19.00;91.00
56046;DHT22;41913;51.030;3.706;2023-11-22T07:00:06;19.10;90.80
56046;DHT22;41913;51.030;3.706;2023-11-22T07:02:37;19.10;90.40
56046;DHT22;41913;51.030;3.706;2023-11-22T07:05:04;19.10;90.10
56046;DHT22;41913;51.030;3.706;2023-11-22T07:07:38;19.20;89.70
56046;DHT22;41913;51.030;3.706;2023-11-22T07:10:04;19.20;89.40
56046;DHT22;41913;51.030;3.706;2023-11-22T07:12:31;19.20;89.20
56046;DHT22;41913;51.030;3.706;2023-11-22T07:15:01;19.20;89.10
56046;DHT22;41913;51.030;3.706;2023-11-22T07:17:29;19.20;88.30
56046;DHT22;41913;51.030;3.706;2023-11-22T07:19:55;19.30;88.20
56046;DHT22;41913;51.030;3.706;2023-11-22T07:22:22;19.30;88.70
56046;DHT22;41913;51.030;3.706;2023-11-22T07:24:50;19.30;87.30
56046;DHT22;41913;51.030;3.706;2023-11-22T07:27:36;19.30;86.60
56046;DHT22;41913;51.030;3.706;2023-11-22T07:30:04;19.30;86.10
56046;DHT22;41913;51.030;3.706;2023-11-22T07:32:30;19.30;85.90
56046;DHT22;41913;51.030;3.706;2023-11-22T07:34:57;19.30;85.70
56046;DHT22;41913;51.030;3.706;2023-11-22T07:37:22;19.30;85.80
56046;DHT22;41913;51.030;3.706;2023-11-22T07:39:50;19.40;86.10
56046;DHT22;41913;51.030;3.706;2023-11-22T07:42:16;19.40;86.00
56046;DHT22;41913;51.030;3.706;2023-11-22T07:44:43;19.40;86.00
56046;DHT22;41913;51.030;3.706;2023-11-22T07:47:12;19.40;86.60
56046;DHT22;41913;51.030;3.706;2023-11-22T07:49:39;19.40;86.90
56046;DHT22;41913;51.030;3.706;2023-11-22T07:52:05;19.40;87.20
56046;DHT22;41913;51.030;3.706;2023-11-22T07:54:33;19.40;86.80
56046;DHT22;41913;51.030;3.706;2023-11-22T07:57:04;19.40;86.30
56046;DHT22;41913;51.030;3.706;2023-11-22T07:59:29;19.40;86.20
56046;DHT22;41913;51.030;3.706;2023-11-22T08:01:55;19.40;86.20
56046;DHT22;41913;51.030;3.706;2023-11-22T08:04:23;19.40;87.20
56046;DHT22;41913;51.030;3.706;2023-11-22T08:06:50;19.40;87.90
56046;DHT22;41913;51.030;3.706;2023-11-22T08:09:17;19.40;87.80
56046;DHT22;41913;51.030;3.706;2023-11-22T08:11:45;19.50;87.40
56046;DHT22;41913;51.030;3.706;2023-11-22T08:14:10;19.40;87.10
56046;DHT22;41913;51.030;3.706;2023-11-22T08:16:38;19.50;87.00
56046;DHT22;41913;51.030;3.706;2023-11-22T08:19:09;19.40;86.80
56046;DHT22;41913;51.030;3.706;2023-11-22T08:21:35;19.50;86.80
56046;DHT22;41913;51.030;3.706;2023-11-22T08:24:01;19.40;86.80
56046;DHT22;41913;51.030;3.706;2023-11-22T08:26:28;19.40;86.80
56046;DHT22;41913;51.030;3.706;2023-11-22T08:28:55;19.40;87.10
56046;DHT22;41913;51.030;3.706;2023-11-22T08:31:22;19.50;86.90
56046;DHT22;41913;51.030;3.706;2023-11-22T08:33:50;19.50;86.70
56046;DHT22;41913;51.030;3.706;2023-11-22T08:36:17;19.40;86.60
56046;DHT22;41913;51.030;3.706;2023-11-22T08:38:44;19.40;86.50
56046;DHT22;41913;51.030;3.706;2023-11-22T08:41:13;19.40;86.60
56046;DHT22;41913;51.030;3.706;2023-11-22T08:43:41;19.40;86.50
56046;DHT22;41913;51.030;3.706;2023-11-22T08:46:09;19.40;86.60
56046;DHT22;41913;51.030;3.706;2023-11-22T08:48:35;19.50;86.70
56046;DHT22;41913;51.030;3.706;2023-11-22T08:51:03;19.40;86.90
56046;DHT22;41913;51.030;3.706;2023-11-22T08:53:29;19.40;86.70
56046;DHT22;41913;51.030;3.706;2023-11-22T08:55:55;19.40;86.50
56046;DHT22;41913;51.030;3.706;2023-11-22T08:58:23;19.40;86.40
56046;DHT22;41913;51.030;3.706;2023-11-22T09:00:48;19.40;86.40
56046;DHT22;41913;51.030;3.706;2023-11-22T09:03:15;19.40;86.40
56046;DHT22;41913;51.030;3.706;2023-11-22T09:05:43;19.40;86.30
56046;DHT22;41913;51.030;3.706;2023-11-22T09:08:12;19.40;86.40
56046;DHT22;41913;51.030;3.706;2023-11-22T09:10:44;19.50;86.50
56046;DHT22;41913;51.030;3.706;2023-11-22T09:13:10;19.40;86.70
56046;DHT22;41913;51.030;3.706;2023-11-22T09:15:37;19.40;86.50
56046;DHT22;41913;51.030;3.706;2023-11-22T09:18:05;19.50;86.40
56046;DHT22;41913;51.030;3.706;2023-11-22T09:20:31;19.40;86.30
56046;DHT22;41913;51.030;3.706;2023-11-22T09:22:57;19.40;86.30
56046;DHT22;41913;51.030;3.706;2023-11-22T09:25:25;19.40;86.30
56046;DHT22;41913;51.030;3.706;2023-11-22T09:27:55;19.40;86.20
56046;DHT22;41913;51.030;3.706;2023-11-22T09:30:28;19.40;86.40
56046;DHT22;41913;51.030;3.706;2023-11-22T09:33:13;19.40;86.50
56046;DHT22;41913;51.030;3.706;2023-11-22T09:35:43;19.40;86.60
56046;DHT22;41913;51.030;3.706;2023-11-22T09:38:11;19.40;86.40
56046;DHT22;41913;51.030;3.706;2023-11-22T09:40:48;19.40;86.30
56046;DHT22;41913;51.030;3.706;2023-11-22T09:43:16;19.40;86.20
56046;DHT22;41913;51.030;3.706;2023-11-22T09:45:49;19.40;86.20
56046;DHT22;41913;51.030;3.706;2023-11-22T09:48:18;19.40;86.20
56046;DHT22;41913;51.030;3.706;2023-11-22T09:51:15;19.40;86.40
56046;DHT22;41913;51.030;3.706;2023-11-22T09:53:53;19.50;86.50
56046;DHT22;41913;51.030;3.706;2023-11-22T09:56:25;19.40;86.70
56046;DHT22;41913;51.030;3.706;2023-11-22T09:58:55;19.40;86.50
56046;DHT22;41913;51.030;3.706;2023-11-22T10:01:22;19.40;86.30
56046;DHT22;41913;51.030;3.706;2023-11-22T10:03:49;19.40;86.30
56046;DHT22;41913;51.030;3.706;2023-11-22T10:06:15;19.40;86.30
56046;DHT22;41913;51.030;3.706;2023-11-22T10:08:44;19.40;86.20
56046;DHT22;41913;51.030;3.706;2023-11-22T10:11:16;19.40;86.20
56046;DHT22;41913;51.030;3.706;2023-11-22T10:13:51;19.40;86.30
56046;DHT22;41913;51.030;3.706;2023-11-22T10:16:18;19.40;86.60
56046;DHT22;41913;51.030;3.706;2023-11-22T10:18:48;19.40;86.80
56046;DHT22;41913;51.030;3.706;2023-11-22T10:21:28;19.50;87.10
56046;DHT22;41913;51.030;3.706;2023-11-22T10:23:56;19.50;87.00
56046;DHT22;41913;51.030;3.706;2023-11-22T10:26:23;19.50;87.10
56046;DHT22;41913;51.030;3.706;2023-11-22T10:28:53;19.40;86.80
56046;DHT22;41913;51.030;3.706;2023-11-22T10:31:20;19.40;86.60
56046;DHT22;41913;51.030;3.706;2023-11-22T10:33:51;19.50;86.60
56046;DHT22;41913;51.030;3.706;2023-11-22T10:36:21;19.40;86.80
56046;DHT22;41913;51.030;3.706;2023-11-22T10:38:48;19.50;86.90
56046;DHT22;41913;51.030;3.706;2023-11-22T10:41:16;19.50;86.80
56046;DHT22;41913;51.030;3.706;2023-11-22T10:43:44;19.50;86.70
56046;DHT22;41913;51.030;3.706;2023-11-22T10:46:12;19.50;86.70
56046;DHT22;41913;51.030;3.706;2023-11-22T10:48:39;19.40;86.60
56046;DHT22;41913;51.030;3.706;2023-11-22T10:51:10;19.50;86.50
56046;DHT22;41913;51.030;3.706;2023-11-22T10:53:37;19.50;86.40
56046;DHT22;41913;51.030;3.706;2023-11-22T10:56:13;19.50;86.60
56046;DHT22;41913;51.030;3.706;2023-11-22T10:58:55;19.50;86.60
56046;DHT22;41913;51.030;3.706;2023-11-22T11:01:26;19.50;86.70
56046;DHT22;41913;51.030;3.706;2023-11-22T11:04:09;19.50;86.70
56046;DHT22;41913;51.030;3.706;2023-11-22T11:06:44;19.50;86.70
56046;DHT22;41913;51.030;3.706;2023-11-22T11:09:13;19.50;86.80
56046;DHT22;41913;51.030;3.706;2023-11-22T11:11:41;19.40;86.60
56046;DHT22;41913;51.030;3.706;2023-11-22T11:14:09;19.50;86.40
56046;DHT22;41913;51.030;3.706;2023-11-22T11:16:39;19.50;86.40
56046;DHT22;41913;51.030;3.706;2023-11-22T11:19:07;19.50;86.50
56046;DHT22;41913;51.030;3.706;2023-11-22T11:21:39;19.50;86.70
56046;DHT22;41913;51.030;3.706;2023-11-22T11:24:06;19.50;86.50
56046;DHT22;41913;51.030;3.706;2023-11-22T11:26:33;19.50;86.50
56046;DHT22;41913;51.030;3.706;2023-11-22T11:29:02;19.50;86.40
56046;DHT22;41913;51.030;3.706;2023-11-22T11:31:39;19.50;86.30
56046;DHT22;41913;51.030;3.706;2023-11-22T11:34:08;19.50;86.30
56046;DHT22;41913;51.030;3.706;2023-11-22T11:36:37;19.50;86.20
56046;DHT22;41913;51.030;3.706;2023-11-22T11:39:07;19.50;86.20
56046;DHT22;41913;51.030;3.706;2023-11-22T11:41:41;19.50;86.40
56046;DHT22;41913;51.030;3.706;2023-11-22T11:44:10;19.50;86.40
56046;DHT22;41913;51.030;3.706;2023-11-22T11:46:39;19.50;86.30
56046;DHT22;41913;51.030;3.706;2023-11-22T11:49:12;19.60;86.20
56046;DHT22;41913;51.030;3.706;2023-11-22T11:51:40;19.50;85.70
56046;DHT22;41913;51.030;3.706;2023-11-22T11:54:08;19.50;85.30
56046;DHT22;41913;51.030;3.706;2023-11-22T11:56:34;19.50;85.10
56046;DHT22;41913;51.030;3.706;2023-11-22T11:59:02;19.50;85.20
56046;DHT22;41913;51.030;3.706;2023-11-22T12:01:29;19.50;86.30
56046;DHT22;41913;51.030;3.706;2023-11-22T12:04:00;19.50;86.00
56046;DHT22;41913;51.030;3.706;2023-11-22T12:06:25;19.50;86.30
56046;DHT22;41913;51.030;3.706;2023-11-22T12:08:54;19.50;86.70
56046;DHT22;41913;51.030;3.706;2023-11-22T12:11:21;19.50;86.70
56046;DHT22;41913;51.030;3.706;2023-11-22T12:13:47;19.50;86.50
56046;DHT22;41913;51.030;3.706;2023-11-22T12:16:16;19.50;86.60
56046;DHT22;41913;51.030;3.706;2023-11-22T12:18:49;19.50;86.90
56046;DHT22;41913;51.030;3.706;2023-11-22T12:21:17;19.50;86.90
56046;DHT22;41913;51.030;3.706;2023-11-22T12:23:45;19.50;87.00
56046;DHT22;41913;51.030;3.706;2023-11-22T12:26:13;19.60;87.20
56046;DHT22;41913;51.030;3.706;2023-11-22T12:28:40;19.50;86.70
56046;DHT22;41913;51.030;3.706;2023-11-22T12:31:13;19.50;86.70
56046;DHT22;41913;51.030;3.706;2023-11-22T12:33:42;19.60;86.90
56046;DHT22;41913;51.030;3.706;2023-11-22T12:36:10;19.50;86.70
56046;DHT22;41913;51.030;3.706;2023-11-22T12:38:36;19.50;86.90
56046;DHT22;41913;51.030;3.706;2023-11-22T12:41:02;19.50;87.00
56046;DHT22;41913;51.030;3.706;2023-11-22T12:43:29;19.50;87.40
56046;DHT22;41913;51.030;3.706;2023-11-22T12:46:07;19.50;87.20
56046;DHT22;41913;51.030;3.706;2023-11-22T12:48:33;19.50;87.60
56046;DHT22;41913;51.030;3.706;2023-11-22T12:51:00;19.50;86.80
56046;DHT22;41913;51.030;3.706;2023-11-22T12:53:26;19.50;86.70
56046;DHT22;41913;51.030;3.706;2023-11-22T12:55:55;19.60;86.80
56046;DHT22;41913;51.030;3.706;2023-11-22T12:58:25;19.50;87.20
56046;DHT22;41913;51.030;3.706;2023-11-22T13:00:55;19.60;86.90
56046;DHT22;41913;51.030;3.706;2023-11-22T13:03:24;19.50;86.90
56046;DHT22;41913;51.030;3.706;2023-11-22T13:05:51;19.60;87.00
56046;DHT22;41913;51.030;3.706;2023-11-22T13:08:20;19.60;86.90
56046;DHT22;41913;51.030;3.706;2023-11-22T13:10:49;19.60;86.90
56046;DHT22;41913;51.030;3.706;2023-11-22T13:13:23;19.60;86.90
56046;DHT22;41913;51.030;3.706;2023-11-22T13:15:49;19.60;87.60
56046;DHT22;41913;51.030;3.706;2023-11-22T13:18:19;19.50;87.00
56046;DHT22;41913;51.030;3.706;2023-11-22T13:20:45;19.50;87.00
56046;DHT22;41913;51.030;3.706;2023-11-22T13:23:12;19.60;87.20
56046;DHT22;41913;51.030;3.706;2023-11-22T13:25:40;19.60;87.20
56046;DHT22;41913;51.030;3.706;2023-11-22T13:28:07;19.60;87.20
56046;DHT22;41913;51.030;3.706;2023-11-22T13:30:34;19.60;87.10
56046;DHT22;41913;51.030;3.706;2023-11-22T13:33:03;19.60;87.10
56046;DHT22;41913;51.030;3.706;2023-11-22T13:35:29;19.60;87.20
56046;DHT22;41913;51.030;3.706;2023-11-22T13:38:00;19.60;87.30
56046;DHT22;41913;51.030;3.706;2023-11-22T13:40:28;19.60;87.30
56046;DHT22;41913;51.030;3.706;2023-11-22T13:42:57;19.60;87.50
56046;DHT22;41913;51.030;3.706;2023-11-22T13:45:24;19.60;87.60
56046;DHT22;41913;51.030;3.706;2023-11-22T13:47:53;19.60;87.50
56046;DHT22;41913;51.030;3.706;2023-11-22T13:50:23;19.60;87.50
56046;DHT22;41913;51.030;3.706;2023-11-22T13:52:51;19.60;87.30
56046;DHT22;41913;51.030;3.706;2023-11-22T13:55:18;19.60;87.40
56046;DHT22;41913;51.030;3.706;2023-11-22T13:57:49;19.60;87.40
56046;DHT22;41913;51.030;3.706;2023-11-22T14:00:19;19.60;87.30
56046;DHT22;41913;51.030;3.706;2023-11-22T14:02:50;19.60;87.40
56046;DHT22;41913;51.030;3.706;2023-11-22T14:05:26;19.60;87.50
56046;DHT22;41913;51.030;3.706;2023-11-22T14:07:55;19.60;87.60
56046;DHT22;41913;51.030;3.706;2023-11-22T14:10:22;19.70;87.60
56046;DHT22;41913;51.030;3.706;2023-11-22T14:12:49;19.60;87.20
56046;DHT22;41913;51.030;3.706;2023-11-22T14:15:16;19.60;87.20
56046;DHT22;41913;51.030;3.706;2023-11-22T14:17:43;19.60;87.10
56046;DHT22;41913;51.030;3.706;2023-11-22T14:20:10;19.60;87.20
56046;DHT22;41913;51.030;3.706;2023-11-22T14:22:39;19.60;87.20
56046;DHT22;41913;51.030;3.706;2023-11-22T14:25:06;19.60;87.10
56046;DHT22;41913;51.030;3.706;2023-11-22T14:27:40;19.60;87.20
56046;DHT22;41913;51.030;3.706;2023-11-22T14:30:10;19.70;87.30
56046;DHT22;41913;51.030;3.706;2023-11-22T14:32:39;19.70;87.30
56046;DHT22;41913;51.030;3.706;2023-11-22T14:35:06;19.60;87.20
56046;DHT22;41913;51.030;3.706;2023-11-22T14:37:35;19.70;87.30
56046;DHT22;41913;51.030;3.706;2023-11-22T14:40:01;19.60;87.20
56046;DHT22;41913;51.030;3.706;2023-11-22T14:42:30;19.60;87.30
56046;DHT22;41913;51.030;3.706;2023-11-22T14:44:57;19.70;87.40
56046;DHT22;41913;51.030;3.706;2023-11-22T14:47:23;19.70;87.40
56046;DHT22;41913;51.030;3.706;2023-11-22T14:49:50;19.70;87.40
56046;DHT22;41913;51.030;3.706;2023-11-22T14:52:16;19.70;87.40
56046;DHT22;41913;51.030;3.706;2023-11-22T14:54:47;19.70;87.40
56046;DHT22;41913;51.030;3.706;2023-11-22T14:57:13;19.70;87.40
56046;DHT22;41913;51.030;3.706;2023-11-22T14:59:43;19.70;87.50
56046;DHT22;41913;51.030;3.706;2023-11-22T15:02:10;19.60;87.40
56046;DHT22;41913;51.030;3.706;2023-11-22T15:04:37;19.70;87.50
56046;DHT22;41913;51.030;3.706;2023-11-22T15:07:07;19.70;87.60
56046;DHT22;41913;51.030;3.706;2023-11-22T15:09:33;19.70;87.50
56046;DHT22;41913;51.030;3.706;2023-11-22T15:12:00;19.70;87.50
56046;DHT22;41913;51.030;3.706;2023-11-22T15:14:29;19.70;87.40
56046;DHT22;41913;51.030;3.706;2023-11-22T15:16:57;19.70;87.50
56046;DHT22;41913;51.030;3.706;2023-11-22T15:19:22;19.70;87.60
56046;DHT22;41913;51.030;3.706;2023-11-22T15:21:53;19.70;87.60
56046;DHT22;41913;51.030;3.706;2023-11-22T15:24:20;19.70;87.60
56046;DHT22;41913;51.030;3.706;2023-11-22T15:26:49;19.70;87.60
56046;DHT22;41913;51.030;3.706;2023-11-22T15:29:15;19.70;87.70
56046;DHT22;41913;51.030;3.706;2023-11-22T15:31:44;19.70;87.60
56046;DHT22;41913;51.030;3.706;2023-11-22T15:34:11;19.70;87.60